Time,TemperatureF,DewpointF,PressureIn,WindDirection,WindDirectionDegrees,WindSpeedMPH,WindSpeedGustMPH,Humidity,HourlyPrecipIn,Conditions,Clouds,dailyrainin,SoftwareType,DateUTC
2013-01-21 00:04:00,29.4,26.0,30.20,North,360,0.0,2.0,87,0.00,,,0.00,weatherlink.com 1.10,2013-01-21 05:04:00,
2013-01-21 00:20:00,28.6,26.0,30.20,North,352,0.0,1.0,89,0.00,,,0.00,weatherlink.com 1.10,2013-01-21 05:20:00,
2013-01-21 00:35:00,27.7,25.0,30.20,North,352,0.0,0.0,90,0.00,,,0.00,weatherlink.com 1.10,2013-01-21 05:35:00,
2013-01-21 00:50:00,27.7,26.0,30.20,NNW,343,0.0,1.0,92,0.00,,,0.00,weatherlink.com 1.10,2013-01-21 05:50:00,
2013-01-21 01:05:00,27.5,26.0,30.20,NNW,343,0.0,0.0,92,0.00,,,0.00,weatherlink.com 1.10,2013-01-21 06:05:00,
2013-01-21 01:20:00,27.2,25.0,30.20,NNW,343,0.0,0.0,92,0.00,,,0.00,weatherlink.com 1.10,2013-01-21 06:20:00,
2013-01-21 01:35:00,26.7,25.0,30.19,NNW,343,0.0,0.0,93,0.00,,,0.00,weatherlink.com 1.10,2013-01-21 06:35:00,
2013-01-21 01:50:00,26.4,25.0,30.19,NNW,343,0.0,0.0,94,0.00,,,0.00,weatherlink.com 1.10,2013-01-21 06:50:00,
2013-01-21 02:05:00,26.4,25.0,30.19,NNW,342,0.0,0.0,93,0.00,,,0.00,weatherlink.com 1.10,2013-01-21 07:05:00,
2013-01-21 02:20:00,25.9,24.0,30.19,NNW,343,0.0,0.0,94,0.00,,,0.00,weatherlink.com 1.10,2013-01-21 07:20:00,
2013-01-21 02:35:00,25.8,25.0,30.19,NNW,343,0.0,0.0,95,0.00,,,0.00,weatherlink.com 1.10,2013-01-21 07:35:00,
2013-01-21 02:50:00,25.6,24.0,30.19,NNW,343,0.0,0.0,95,0.00,,,0.00,weatherlink.com 1.10,2013-01-21 07:50:00,
2013-01-21 03:05:00,25.2,24.0,30.19,NNW,343,0.0,0.0,96,0.00,,,0.00,weatherlink.com 1.10,2013-01-21 08:05:00,
2013-01-21 03:20:00,25.1,24.0,30.19,NNW,343,0.0,0.0,96,0.00,,,0.00,weatherlink.com 1.10,2013-01-21 08:20:00,
2013-01-21 03:35:00,25.1,24.0,30.19,NNW,343,0.0,0.0,96,0.00,,,0.00,weatherlink.com 1.10,2013-01-21 08:35:00,
2013-01-21 03:50:00,24.9,24.0,30.18,NNW,343,0.0,0.0,96,0.00,,,0.00,weatherlink.com 1.10,2013-01-21 08:50:00,
2013-01-21 04:05:00,24.7,24.0,30.18,NNW,343,0.0,1.0,96,0.00,,,0.00,weatherlink.com 1.10,2013-01-21 09:05:00,
2013-01-21 04:20:00,24.7,24.0,30.17,NNW,343,0.0,1.0,96,0.00,,,0.00,weatherlink.com 1.10,2013-01-21 09:20:00,
2013-01-21 04:35:00,24.7,24.0,30.17,NNW,343,0.0,1.0,97,0.00,,,0.00,weatherlink.com 1.10,2013-01-21 09:35:00,
2013-01-21 04:50:00,24.8,24.0,30.16,NNW,343,0.0,0.0,97,0.00,,,0.00,weatherlink.com 1.10,2013-01-21 09:50:00,
2013-01-21 05:05:00,24.6,24.0,30.16,NNW,343,0.0,0.0,97,0.00,,,0.00,weatherlink.com 1.10,2013-01-21 10:05:00,
2013-01-21 05:20:00,25.3,25.0,30.16,NNW,330,1.0,2.0,97,0.00,,,0.00,weatherlink.com 1.10,2013-01-21 10:20:00,
2013-01-21 05:35:00,25.9,25.0,30.16,NW,323,0.0,2.0,96,0.00,,,0.00,weatherlink.com 1.10,2013-01-21 10:35:00,
2013-01-21 05:50:00,26.2,25.0,30.16,NW,314,0.0,2.0,95,0.00,,,0.00,weatherlink.com 1.10,2013-01-21 10:50:00,
2013-01-21 06:05:00,26.3,25.0,30.16,NW,320,0.0,2.0,94,0.00,,,0.00,weatherlink.com 1.10,2013-01-21 11:05:00,
2013-01-21 06:20:00,25.6,24.0,30.16,NW,320,0.0,0.0,94,0.00,,,0.00,weatherlink.com 1.10,2013-01-21 11:20:00,
2013-01-21 06:35:00,24.9,24.0,30.16,NW,320,0.0,0.0,95,0.00,,,0.00,weatherlink.com 1.10,2013-01-21 11:35:00,
2013-01-21 06:50:00,24.7,24.0,30.16,NW,320,0.0,0.0,96,0.00,,,0.00,weatherlink.com 1.10,2013-01-21 11:50:00,
2013-01-21 07:05:00,24.3,23.0,30.17,NW,321,0.0,0.0,96,0.00,,,0.00,weatherlink.com 1.10,2013-01-21 12:05:00,
2013-01-21 07:20:00,24.3,23.0,30.17,NW,320,1.0,1.0,96,0.00,,,0.00,weatherlink.com 1.10,2013-01-21 12:20:00,
2013-01-21 07:35:00,24.4,24.0,30.17,SSE,162,0.0,2.0,96,0.00,,,0.00,weatherlink.com 1.10,2013-01-21 12:35:00,
2013-01-21 07:50:00,24.4,24.0,30.16,East,101,0.0,1.0,96,0.00,,,0.00,weatherlink.com 1.10,2013-01-21 12:50:00,
2013-01-21 08:05:00,25.8,24.0,30.17,WNW,294,1.0,2.0,94,0.00,,,0.00,weatherlink.com 1.10,2013-01-21 13:05:00,
2013-01-21 08:20:00,31.5,25.0,30.18,WSW,252,1.0,5.0,76,0.00,,,0.00,weatherlink.com 1.10,2013-01-21 13:20:00,
2013-01-21 08:35:00,36.9,22.0,30.18,North,356,0.0,6.0,56,0.00,,,0.00,weatherlink.com 1.10,2013-01-21 13:35:00,
2013-01-21 08:50:00,40.5,19.0,30.18,NNW,335,3.0,8.0,43,0.00,,,0.00,weatherlink.com 1.10,2013-01-21 13:50:00,
2013-01-21 09:06:00,42.1,19.0,30.19,NW,309,3.0,11.0,40,0.00,,,0.00,weatherlink.com 1.10,2013-01-21 14:06:00,
2013-01-21 09:21:00,43.4,19.0,30.20,NW,305,3.0,9.0,38,0.00,,,0.00,weatherlink.com 1.10,2013-01-21 14:21:00,
2013-01-21 09:36:00,43.8,17.0,30.20,NW,307,3.0,11.0,34,0.00,,,0.00,weatherlink.com 1.10,2013-01-21 14:36:00,
2013-01-21 09:51:00,44.1,19.0,30.21,NW,320,6.0,13.0,36,0.00,,,0.00,weatherlink.com 1.10,2013-01-21 14:51:00,
2013-01-21 10:06:00,44.4,21.0,30.20,NW,311,2.0,14.0,39,0.00,,,0.00,weatherlink.com 1.10,2013-01-21 15:06:00,
2013-01-21 10:21:00,44.8,20.0,30.20,WNW,295,5.0,12.0,38,0.00,,,0.00,weatherlink.com 1.10,2013-01-21 15:21:00,
2013-01-21 10:36:00,45.2,23.0,30.20,WNW,292,4.0,12.0,41,0.00,,,0.00,weatherlink.com 1.10,2013-01-21 15:36:00,
2013-01-21 10:51:00,46.3,24.0,30.20,West,280,3.0,12.0,42,0.00,,,0.00,weatherlink.com 1.10,2013-01-21 15:51:00,
2013-01-21 11:06:00,46.5,24.0,30.20,West,270,2.0,7.0,42,0.00,,,0.00,weatherlink.com 1.10,2013-01-21 16:06:00,
2013-01-21 11:21:00,46.6,25.0,30.20,North,9,8.0,11.0,43,0.00,,,0.00,weatherlink.com 1.10,2013-01-21 16:21:00,
2013-01-21 11:36:00,46.5,25.0,30.19,NE,37,3.0,15.0,44,0.00,,,0.00,weatherlink.com 1.10,2013-01-21 16:36:00,
2013-01-21 11:51:00,46.9,26.0,30.18,WSW,245,3.0,11.0,44,0.00,,,0.00,weatherlink.com 1.10,2013-01-21 16:51:00,
2013-01-21 12:06:00,47.1,27.0,30.17,WNW,301,1.0,10.0,45,0.00,,,0.00,weatherlink.com 1.10,2013-01-21 17:06:00,
2013-01-21 12:21:00,46.1,25.0,30.16,WNW,294,2.0,15.0,44,0.00,,,0.00,weatherlink.com 1.10,2013-01-21 17:21:00,
2013-01-21 12:36:00,46.3,27.0,30.15,WNW,282,3.0,17.0,48,0.00,,,0.00,weatherlink.com 1.10,2013-01-21 17:36:00,
2013-01-21 12:51:00,46.2,27.0,30.14,WNW,285,1.0,13.0,47,0.00,,,0.00,weatherlink.com 1.10,2013-01-21 17:51:00,
2013-01-21 13:06:00,46.9,26.0,30.13,West,277,2.0,19.0,45,0.00,,,0.00,weatherlink.com 1.10,2013-01-21 18:06:00,
2013-01-21 13:21:00,47.0,26.0,30.13,NNW,337,12.0,24.0,44,0.00,,,0.00,weatherlink.com 1.10,2013-01-21 18:21:00,
2013-01-21 13:36:00,47.3,26.0,30.13,NW,309,5.0,13.0,43,0.00,,,0.00,weatherlink.com 1.10,2013-01-21 18:36:00,
2013-01-21 13:51:00,47.7,26.0,30.11,NW,325,7.0,16.0,43,0.00,,,0.00,weatherlink.com 1.10,2013-01-21 18:51:00,
2013-01-21 14:06:00,48.3,25.0,30.11,NNE,32,8.0,19.0,41,0.00,,,0.00,weatherlink.com 1.10,2013-01-21 19:06:00,
2013-01-21 14:21:00,48.1,25.0,30.11,NW,316,2.0,18.0,41,0.00,,,0.00,weatherlink.com 1.10,2013-01-21 19:21:00,
2013-01-21 14:36:00,48.0,24.0,30.11,NW,309,4.0,22.0,39,0.00,,,0.00,weatherlink.com 1.10,2013-01-21 19:36:00,
2013-01-21 14:51:00,47.9,24.0,30.11,NW,306,8.0,17.0,40,0.00,,,0.00,weatherlink.com 1.10,2013-01-21 19:51:00,
2013-01-21 15:06:00,47.7,24.0,30.11,WSW,240,6.0,13.0,40,0.00,,,0.00,weatherlink.com 1.10,2013-01-21 20:06:00,
2013-01-21 15:21:00,47.6,22.0,30.11,NW,311,5.0,15.0,37,0.00,,,0.00,weatherlink.com 1.10,2013-01-21 20:21:00,
2013-01-21 15:36:00,46.8,22.0,30.11,NNW,347,5.0,16.0,37,0.00,,,0.00,weatherlink.com 1.10,2013-01-21 20:36:00,
2013-01-21 15:51:00,46.4,21.0,30.12,NW,316,11.0,20.0,37,0.00,,,0.00,weatherlink.com 1.10,2013-01-21 20:51:00,
2013-01-21 16:06:00,45.7,19.0,30.11,NW,316,16.0,25.0,34,0.00,,,0.00,weatherlink.com 1.10,2013-01-21 21:06:00,
2013-01-21 16:21:00,43.8,19.0,30.12,WNW,293,5.0,24.0,37,0.00,,,0.00,weatherlink.com 1.10,2013-01-21 21:21:00,
2013-01-21 16:36:00,42.7,18.0,30.12,NW,305,10.0,20.0,37,0.00,,,0.00,weatherlink.com 1.10,2013-01-21 21:36:00,
2013-01-21 16:51:00,41.7,17.0,30.12,NW,316,17.0,18.0,37,0.00,,,0.00,weatherlink.com 1.10,2013-01-21 21:51:00,
2013-01-21 17:06:00,40.9,15.0,30.12,NW,312,6.0,22.0,35,0.00,,,0.00,weatherlink.com 1.10,2013-01-21 22:06:00,
2013-01-21 17:21:00,40.1,12.0,30.13,WNW,297,3.0,23.0,32,0.00,,,0.00,weatherlink.com 1.10,2013-01-21 22:21:00,
2013-01-21 17:36:00,38.8,12.0,30.13,NW,325,6.0,18.0,33,0.00,,,0.00,weatherlink.com 1.10,2013-01-21 22:36:00,
2013-01-21 17:51:00,38.1,13.0,30.13,NW,305,3.0,23.0,35,0.00,,,0.00,weatherlink.com 1.10,2013-01-21 22:51:00,
2013-01-21 18:06:00,37.5,13.0,30.13,NW,323,8.0,18.0,37,0.00,,,0.00,weatherlink.com 1.10,2013-01-21 23:06:00,
2013-01-21 18:21:00,37.0,13.0,30.12,WNW,288,6.0,18.0,38,0.00,,,0.00,weatherlink.com 1.10,2013-01-21 23:21:00,
2013-01-21 18:36:00,36.4,14.0,30.12,NW,316,11.0,26.0,40,0.00,,,0.00,weatherlink.com 1.10,2013-01-21 23:36:00,
2013-01-21 18:52:00,35.9,15.0,30.13,WNW,290,5.0,13.0,42,0.00,,,0.00,weatherlink.com 1.10,2013-01-21 23:52:00,
2013-01-21 19:06:00,35.6,14.0,30.14,WNW,302,9.0,31.0,42,0.00,,,0.00,weatherlink.com 1.10,2013-01-22 00:06:00,
2013-01-21 19:21:00,35.1,13.0,30.14,NW,316,8.0,16.0,41,0.00,,,0.00,weatherlink.com 1.10,2013-01-22 00:21:00,
2013-01-21 19:36:00,34.8,14.0,30.13,NNE,23,6.0,18.0,42,0.00,,,0.00,weatherlink.com 1.10,2013-01-22 00:36:00,
2013-01-21 19:51:00,34.4,14.0,30.13,NW,308,7.0,16.0,43,0.00,,,0.00,weatherlink.com 1.10,2013-01-22 00:51:00,
2013-01-21 20:06:00,33.7,14.0,30.13,West,281,3.0,13.0,45,0.00,,,0.00,weatherlink.com 1.10,2013-01-22 01:06:00,
2013-01-21 20:21:00,33.5,14.0,30.13,NW,322,4.0,16.0,45,0.00,,,0.00,weatherlink.com 1.10,2013-01-22 01:21:00,
2013-01-21 20:36:00,33.2,14.0,30.13,WNW,288,4.0,12.0,46,0.00,,,0.00,weatherlink.com 1.10,2013-01-22 01:36:00,
2013-01-21 20:51:00,33.0,14.0,30.14,NW,311,4.0,15.0,46,0.00,,,0.00,weatherlink.com 1.10,2013-01-22 01:51:00,
2013-01-21 21:07:00,32.7,14.0,30.13,WNW,296,2.0,14.0,47,0.00,,,0.00,weatherlink.com 1.10,2013-01-22 02:07:00,
2013-01-21 21:22:00,32.4,14.0,30.14,WNW,297,9.0,13.0,47,0.00,,,0.00,weatherlink.com 1.10,2013-01-22 02:22:00,
2013-01-21 21:37:00,32.0,14.0,30.14,WNW,288,4.0,17.0,47,0.00,,,0.00,weatherlink.com 1.10,2013-01-22 02:37:00,
2013-01-21 21:52:00,31.8,14.0,30.13,NNE,27,6.0,16.0,48,0.00,,,0.00,weatherlink.com 1.10,2013-01-22 02:52:00,
2013-01-21 22:07:00,31.6,14.0,30.12,NW,314,4.0,12.0,49,0.00,,,0.00,weatherlink.com 1.10,2013-01-22 03:07:00,
2013-01-21 22:22:00,31.5,14.0,30.13,NW,309,4.0,15.0,48,0.00,,,0.00,weatherlink.com 1.10,2013-01-22 03:22:00,
2013-01-21 22:37:00,31.3,14.0,30.13,WNW,282,3.0,18.0,49,0.00,,,0.00,weatherlink.com 1.10,2013-01-22 03:37:00,
2013-01-21 22:52:00,31.0,14.0,30.12,NW,308,6.0,21.0,49,0.00,,,0.00,weatherlink.com 1.10,2013-01-22 03:52:00,
2013-01-21 23:07:00,30.6,14.0,30.12,NW,311,7.0,15.0,50,0.00,,,0.00,weatherlink.com 1.10,2013-01-22 04:07:00,
2013-01-21 23:22:00,30.5,14.0,30.12,WSW,248,1.0,24.0,50,0.00,,,0.00,weatherlink.com 1.10,2013-01-22 04:22:00,
2013-01-21 23:37:00,30.0,13.0,30.12,WSW,251,7.0,26.0,50,0.00,,,0.00,weatherlink.com 1.10,2013-01-22 04:37:00,
2013-01-21 23:52:00,29.7,13.0,30.11,SW,229,5.0,19.0,50,0.00,,,0.00,weatherlink.com 1.10,2013-01-22 04:52:00,